Chiniot Weather



Chiniot's Current Weather

Temprature 19.249o clear sky

clear sky

Rain: 0 %

Min Temprature19.249o
Max Temprature19.249o
Humidity69
Wind Speed1.61 m/h
Sun Rise06:42:03
Sun Set18:01:14
Current Time: 23-Feb-2019 15:31:37
Lat/Lon: 31.72, 72.98




Chiniot's Geo Location




Chiniot's Weather Forecast

Time Overall Temp Min Temp Max Temp Humidity Wind Speed Rain
23-Feb-2019 (Sat)
17:00:00 clear sky 18.680 18.680 19.249 69 1.61 m/h 0 %
20:00:00 clear sky 13.750 13.750 14.183 66 2.42 m/h 0 %
23:00:00 clear sky 12.050 12.050 12.340 72 3.47 m/h 0 %
24-Feb-2019 (Sun)
02:00:00 clear sky 9.920 9.920 10.060 86 0.81 m/h 0 %
05:00:00 clear sky 9.042 9.042 9.042 89 1.06 m/h 0 %
08:00:00 clear sky 10.578 10.578 10.578 83 1.06 m/h 0 %
11:00:00 clear sky 18.224 18.224 18.224 95 1.41 m/h 0 %
14:00:00 clear sky 20.231 20.231 20.231 87 1.67 m/h 0 %
17:00:00 few clouds 19.571 19.571 19.571 71 1.4 m/h 0 %
20:00:00 clear sky 14.743 14.743 14.743 73 1.31 m/h 0 %
23:00:00 few clouds 12.736 12.736 12.736 81 1.11 m/h 0 %
25-Feb-2019 (Mon)
02:00:00 light rain 11.355 11.355 11.355 89 2.27 m/h 18 %
05:00:00 light rain 10.227 10.227 10.227 96 3.01 m/h 18 %
08:00:00 moderate rain 10.970 10.970 10.970 97 3.37 m/h 350 %
11:00:00 moderate rain 12.222 12.222 12.222 100 1.71 m/h 430 %
14:00:00 moderate rain 13.373 13.373 13.373 100 3.42 m/h 330 %
17:00:00 light rain 13.562 13.562 13.562 100 2.31 m/h 61 %
20:00:00 scattered clouds 11.423 11.423 11.423 91 1.51 m/h 0 %
23:00:00 light rain 10.517 10.517 10.517 98 2.66 m/h 43 %
26-Feb-2019 (Tue)
02:00:00 light rain 9.876 9.876 9.876 98 3.56 m/h 6 %
05:00:00 light rain 10.172 10.172 10.172 99 2.86 m/h 6 %
08:00:00 light rain 10.682 10.682 10.682 100 3.02 m/h 14 %
11:00:00 light rain 12.817 12.817 12.817 100 2.32 m/h 12 %
14:00:00 light rain 14.146 14.146 14.146 100 3.31 m/h 6 %
17:00:00 light rain 13.739 13.739 13.739 99 2.76 m/h 27 %
20:00:00 light rain 11.336 11.336 11.336 96 2.07 m/h 2 %
23:00:00 light rain 10.548 10.548 10.548 95 1.32 m/h 3 %
27-Feb-2019 (Wed)
02:00:00 light rain 9.631 9.631 9.631 100 1.31 m/h 3 %
05:00:00 few clouds 7.744 7.744 7.744 94 1.15 m/h 0 %
08:00:00 light rain 8.815 8.815 8.815 99 1.52 m/h 3 %
11:00:00 light rain 13.370 13.370 13.370 100 1.96 m/h 6 %
14:00:00 few clouds 15.636 15.636 15.636 100 2.1 m/h 0 %
17:00:00 clear sky 15.348 15.348 15.348 80 3.31 m/h 0 %
20:00:00 clear sky 11.942 11.942 11.942 83 3.37 m/h 0 %
23:00:00 scattered clouds 9.941 9.941 9.941 93 3.42 m/h 0 %
28-Feb-2019 (Thu)
02:00:00 broken clouds 9.141 9.141 9.141 97 1.61 m/h 0 %
05:00:00 broken clouds 8.713 8.713 8.713 96 1.51 m/h 0 %
08:00:00 broken clouds 9.665 9.665 9.665 88 2.36 m/h 0 %
11:00:00 light rain 12.647 12.647 12.647 95 2.51 m/h 2 %
14:00:00 light rain 13.704 13.704 13.704 88 2.12 m/h 13 %


Chiniot's Tourist Spots

Historical Places in Chiniot

Famous Cities (60)